Time;durP1;ratioP1;P1;durP2;ratioP2;P2;SDS_P1;SDS_P2;PMS_P1;PMS_P2;Temp;Humidity;BMP_temperature;BMP_pressure;BME280_temperature;BME280_humidity;BME280_pressure;Samples;Min_cycle;Max_cycle;Signal;HPM_P1;HPM_P2
2023/08/30 00:00:42;;;;;;;2.72;1.45;;;15.80;68.10;;;;;;5026702;28;20139;-80
2023/08/30 00:03:08;;;;;;;3.22;1.60;;;15.70;68.20;;;;;;5014924;28;20384;-81
2023/08/30 00:05:38;;;;;;;3.10;1.42;;;15.70;68.60;;;;;;5050821;28;20477;-81
2023/08/30 00:08:04;;;;;;;2.85;1.40;;;15.70;69.00;;;;;;5030613;28;20127;-81
2023/08/30 00:10:29;;;;;;;3.28;1.60;;;15.60;69.50;;;;;;5016414;28;20052;-81
2023/08/30 00:12:55;;;;;;;3.90;1.45;;;15.60;70.10;;;;;;5014250;28;20045;-81
2023/08/30 00:15:21;;;;;;;3.15;1.40;;;15.60;71.40;;;;;;5032091;28;20055;-82
2023/08/30 00:17:47;;;;;;;2.97;1.33;;;15.50;71.60;;;;;;5002176;28;20678;-81
2023/08/30 00:20:12;;;;;;;3.03;1.80;;;15.40;72.20;;;;;;4996622;28;20040;-79
2023/08/30 00:22:39;;;;;;;3.60;1.77;;;15.40;72.70;;;;;;5047596;28;20550;-82
2023/08/30 00:25:05;;;;;;;3.40;1.52;;;15.40;73.20;;;;;;5017669;28;20053;-81
2023/08/30 00:27:31;;;;;;;4.50;2.13;;;15.30;73.80;;;;;;4998662;28;20113;-82
2023/08/30 00:29:57;;;;;;;3.40;1.70;;;15.20;74.30;;;;;;5029967;28;21041;-82
2023/08/30 00:32:23;;;;;;;3.17;1.80;;;15.20;74.90;;;;;;5019536;28;20044;-83
2023/08/30 00:34:52;;;;;;;3.33;1.92;;;15.10;75.40;;;;;;5032168;28;20592;-82
2023/08/30 00:37:18;;;;;;;2.97;2.20;;;15.10;76.00;;;;;;5012784;28;20640;-82
2023/08/30 00:39:44;;;;;;;3.35;2.00;;;15.00;76.30;;;;;;5032355;28;20045;-81
2023/08/30 00:42:09;;;;;;;3.53;2.28;;;15.00;76.90;;;;;;5027983;28;20056;-83
2023/08/30 00:44:35;;;;;;;2.97;2.00;;;15.00;77.40;;;;;;5030569;28;20056;-82
2023/08/30 00:47:02;;;;;;;4.43;2.10;;;14.90;77.80;;;;;;5029457;28;20289;-83
2023/08/30 00:49:30;;;;;;;4.32;2.25;;;14.90;78.30;;;;;;5031649;28;20053;-81
2023/08/30 00:52:02;;;;;;;4.03;2.35;;;14.80;78.80;;;;;;5032740;28;20052;-82
2023/08/30 00:54:27;;;;;;;4.68;2.70;;;14.80;79.20;;;;;;5030896;28;20047;-80
2023/08/30 00:56:54;;;;;;;5.22;2.70;;;14.70;79.50;;;;;;5014517;28;20060;-79
2023/08/30 00:59:21;;;;;;;3.97;2.50;;;14.70;79.90;;;;;;5035982;28;20059;-83
2023/08/30 01:01:48;;;;;;;3.97;2.72;;;14.70;80.20;;;;;;5032400;28;20059;-82
2023/08/30 01:04:14;;;;;;;4.15;2.72;;;14.60;80.60;;;;;;5001093;28;20055;-78
2023/08/30 01:06:41;;;;;;;4.43;2.80;;;14.60;81.00;;;;;;5032174;28;20044;-82
2023/08/30 01:09:10;;;;;;;5.97;2.80;;;14.60;81.40;;;;;;5034351;28;20040;-80
2023/08/30 01:11:56;;;;;;;5.03;2.80;;;14.50;81.80;;;;;;5034896;28;20690;-78
2023/08/30 01:14:29;;;;;;;3.78;2.53;;;14.50;82.30;;;;;;5026353;28;20094;-79
2023/08/30 01:16:57;;;;;;;4.80;2.92;;;14.40;82.40;;;;;;5040591;28;20084;-81
2023/08/30 01:19:32;;;;;;;4.97;3.13;;;14.40;82.80;;;;;;5034588;28;20677;-82
2023/08/30 01:22:27;;;;;;;4.97;2.80;;;14.40;83.40;;;;;;5033734;28;20515;-82
2023/08/30 01:24:55;;;;;;;4.68;2.97;;;14.30;83.70;;;;;;5033416;28;20067;-84
2023/08/30 01:27:23;;;;;;;4.60;3.20;;;14.30;84.40;;;;;;5038166;28;20048;-83
2023/08/30 01:29:54;;;;;;;4.53;3.42;;;14.20;84.20;;;;;;5036917;28;20063;-80
2023/08/30 01:32:22;;;;;;;4.35;3.03;;;14.20;84.50;;;;;;5038434;28;20496;-81
2023/08/30 01:34:50;;;;;;;5.05;3.35;;;14.10;84.80;;;;;;5030142;28;20044;-85
2023/08/30 01:37:16;;;;;;;6.97;3.80;;;14.10;85.00;;;;;;5018811;28;20386;-84
2023/08/30 01:39:43;;;;;;;4.45;3.38;;;14.10;85.30;;;;;;5052301;28;20055;-84
2023/08/30 01:42:10;;;;;;;5.10;3.55;;;14.10;85.80;;;;;;5035801;28;20055;-85
2023/08/30 01:44:37;;;;;;;6.38;3.90;;;14.00;86.10;;;;;;5034500;28;20187;-84
2023/08/30 01:47:03;;;;;;;4.75;3.97;;;13.90;86.50;;;;;;5024644;28;20056;-84
2023/08/30 01:49:33;;;;;;;4.75;3.60;;;13.90;87.20;;;;;;5016778;28;20044;-82
2023/08/30 01:52:01;;;;;;;5.03;3.67;;;13.80;88.10;;;;;;5033759;28;20052;-81
2023/08/30 01:54:27;;;;;;;7.28;4.45;;;13.80;88.70;;;;;;5014609;28;20044;-82
2023/08/30 01:56:53;;;;;;;6.20;3.85;;;13.70;89.60;;;;;;5015577;28;20060;-82
2023/08/30 01:59:19;;;;;;;4.55;3.85;;;13.60;90.10;;;;;;5036437;28;20052;-81
2023/08/30 02:01:45;;;;;;;5.80;4.40;;;13.60;90.40;;;;;;5018603;28;20053;-82
2023/08/30 02:04:10;;;;;;;5.38;4.05;;;13.50;90.70;;;;;;5031684;28;20044;-81
2023/08/30 02:06:45;;;;;;;6.95;4.43;;;13.50;90.90;;;;;;5032886;28;20106;-81
2023/08/30 02:09:18;;;;;;;6.40;4.78;;;13.50;91.20;;;;;;5037365;28;20127;-81
2023/08/30 02:11:45;;;;;;;6.53;4.10;;;13.50;91.60;;;;;;5032517;28;20744;-83
2023/08/30 02:14:17;;;;;;;5.75;4.28;;;13.50;91.60;;;;;;5014272;28;20063;-80
2023/08/30 02:16:44;;;;;;;5.55;4.13;;;13.50;91.90;;;;;;5032527;28;20049;-82
2023/08/30 02:19:12;;;;;;;5.63;4.25;;;13.50;92.00;;;;;;5014162;28;22294;-79
2023/08/30 02:21:39;;;;;;;6.20;4.63;;;13.50;92.20;;;;;;5036191;28;20032;-81
2023/08/30 02:24:05;;;;;;;6.45;4.80;;;13.60;92.40;;;;;;5013711;28;20570;-82
2023/08/30 02:26:31;;;;;;;6.45;4.68;;;13.60;92.70;;;;;;5031280;28;20059;-82
2023/08/30 02:28:57;;;;;;;6.95;4.80;;;13.60;92.80;;;;;;5047807;28;20554;-80
2023/08/30 02:31:22;;;;;;;7.43;5.07;;;13.70;93.20;;;;;;5017321;28;20491;-81
2023/08/30 02:33:48;;;;;;;6.53;5.30;;;13.70;93.40;;;;;;5034575;28;20049;-80
2023/08/30 02:36:14;;;;;;;6.63;5.22;;;13.80;93.60;;;;;;5004933;28;20127;-81
2023/08/30 02:38:40;;;;;;;8.98;5.57;;;13.80;93.70;;;;;;5033281;28;20102;-81
2023/08/30 02:41:07;;;;;;;7.25;5.15;;;13.90;93.90;;;;;;5015956;28;20198;-82
2023/08/30 02:43:33;;;;;;;8.10;5.82;;;14.00;94.20;;;;;;5019746;28;20040;-81
2023/08/30 02:45:58;;;;;;;7.35;5.30;;;14.10;94.60;;;;;;5031937;28;20048;-79
2023/08/30 02:48:24;;;;;;;9.52;5.97;;;14.10;95.00;;;;;;5030759;28;21408;-80
2023/08/30 02:50:50;;;;;;;9.02;6.43;;;14.20;95.50;;;;;;5035192;28;20052;-81
2023/08/30 02:53:16;;;;;;;8.27;6.82;;;14.20;96.10;;;;;;5031370;28;20051;-80
2023/08/30 02:55:42;;;;;;;9.23;6.63;;;14.20;96.50;;;;;;5030101;28;20056;-77
2023/08/30 02:58:07;;;;;;;9.30;6.47;;;14.20;96.80;;;;;;5030484;28;20037;-79
2023/08/30 03:00:34;;;;;;;11.15;8.07;;;14.30;97.00;;;;;;5045460;28;20159;-80
2023/08/30 03:03:00;;;;;;;10.50;7.53;;;14.20;97.20;;;;;;5031434;28;20057;-79
2023/08/30 03:05:25;;;;;;;11.55;7.90;;;14.20;97.50;;;;;;5031220;28;20055;-82
2023/08/30 03:07:53;;;;;;;10.82;7.72;;;14.20;97.80;;;;;;5029927;28;20148;-80
2023/08/30 03:10:19;;;;;;;10.63;7.85;;;14.20;98.10;;;;;;5028778;28;20186;-78
2023/08/30 03:12:44;;;;;;;11.05;7.72;;;14.20;98.20;;;;;;5050819;28;20694;-79
2023/08/30 03:15:11;;;;;;;10.27;7.47;;;14.30;98.30;;;;;;5047998;28;20041;-80
2023/08/30 03:17:37;;;;;;;9.73;7.63;;;14.20;98.40;;;;;;5029232;28;20182;-80
2023/08/30 03:20:06;;;;;;;9.55;7.72;;;14.30;98.60;;;;;;4998705;28;20048;-80
2023/08/30 03:22:32;;;;;;;11.63;7.57;;;14.30;98.80;;;;;;5033730;28;20055;-81
2023/08/30 03:24:58;;;;;;;9.00;7.28;;;14.20;99.00;;;;;;5045490;28;20052;-79
2023/08/30 03:27:24;;;;;;;10.80;7.63;;;14.30;99.10;;;;;;5050369;28;20060;-78
2023/08/30 03:29:50;;;;;;;11.65;8.57;;;14.30;99.20;;;;;;5046224;28;20048;-86
2023/08/30 03:32:18;;;;;;;9.70;7.45;;;14.30;99.50;;;;;;5031240;28;20106;-80
2023/08/30 03:34:45;;;;;;;11.43;8.10;;;14.30;99.60;;;;;;5028165;28;20087;-84
2023/08/30 03:37:11;;;;;;;11.18;8.55;;;14.30;99.90;;;;;;5038917;28;20134;-83
2023/08/30 03:39:37;;;;;;;10.77;8.00;;;14.30;99.90;;;;;;5028936;28;20040;-82
2023/08/30 03:42:03;;;;;;;11.18;7.68;;;14.30;99.90;;;;;;5033414;28;20374;-81
2023/08/30 03:44:29;;;;;;;10.35;8.38;;;14.30;99.90;;;;;;4995081;28;20454;-83
2023/08/30 03:46:56;;;;;;;10.65;8.27;;;14.30;99.90;;;;;;5046018;28;20044;-81
2023/08/30 03:49:22;;;;;;;12.50;9.75;;;14.30;99.90;;;;;;5015065;28;20045;-81
2023/08/30 03:51:49;;;;;;;11.80;9.10;;;14.30;99.90;;;;;;5016044;28;20071;-81
2023/08/30 03:54:16;;;;;;;11.68;9.10;;;14.20;99.90;;;;;;5047675;28;20630;-84
2023/08/30 03:56:45;;;;;;;12.18;9.73;;;14.30;99.90;;;;;;5011797;28;20044;-82
2023/08/30 03:59:12;;;;;;;11.98;9.82;;;14.20;99.90;;;;;;5030047;28;20036;-81
2023/08/30 04:01:37;;;;;;;12.77;9.90;;;14.30;99.90;;;;;;5015207;28;20040;-81
2023/08/30 04:04:04;;;;;;;15.90;10.65;;;14.30;99.90;;;;;;4998111;28;20071;-81
2023/08/30 04:06:30;;;;;;;12.02;9.88;;;14.30;99.90;;;;;;5029405;28;20507;-82
2023/08/30 04:08:56;;;;;;;14.18;10.50;;;14.30;99.90;;;;;;5017293;28;20561;-82
2023/08/30 04:11:23;;;;;;;14.55;10.48;;;14.30;99.90;;;;;;5012031;28;20079;-82
2023/08/30 04:13:49;;;;;;;14.23;10.75;;;14.30;99.90;;;;;;5025899;28;20248;-81
2023/08/30 04:16:15;;;;;;;15.82;10.05;;;14.40;99.90;;;;;;5026681;28;20388;-82
2023/08/30 04:18:40;;;;;;;15.00;10.50;;;14.40;99.90;;;;;;5027620;28;20028;-81
2023/08/30 04:21:08;;;;;;;16.35;11.25;;;14.40;99.90;;;;;;5030508;28;20503;-79
2023/08/30 04:23:34;;;;;;;14.18;10.35;;;14.50;99.90;;;;;;5014832;28;20058;-81
2023/08/30 04:26:00;;;;;;;13.32;10.48;;;14.50;99.90;;;;;;5014513;28;20045;-80
2023/08/30 04:28:29;;;;;;;15.85;10.77;;;14.50;99.90;;;;;;5029845;28;20499;-78
2023/08/30 04:30:56;;;;;;;15.45;10.60;;;14.50;99.90;;;;;;5030054;28;20056;-80
2023/08/30 04:33:22;;;;;;;15.65;10.75;;;14.50;99.90;;;;;;5033382;28;20048;-78
2023/08/30 04:35:52;;;;;;;13.88;10.18;;;14.50;99.90;;;;;;5029214;28;20044;-80
2023/08/30 04:38:19;;;;;;;14.90;10.02;;;14.50;99.90;;;;;;5017896;28;20537;-79
2023/08/30 04:40:46;;;;;;;13.90;10.50;;;14.40;99.90;;;;;;5012663;28;20044;-80
2023/08/30 04:43:12;;;;;;;15.90;10.80;;;14.50;99.90;;;;;;5033554;28;20044;-79
2023/08/30 04:45:38;;;;;;;14.40;10.73;;;14.60;99.90;;;;;;5010383;28;20050;-77
2023/08/30 04:48:04;;;;;;;14.20;10.40;;;14.60;99.90;;;;;;5031412;28;20537;-82
2023/08/30 04:50:30;;;;;;;15.48;10.38;;;14.50;99.90;;;;;;5014400;28;20132;-81
2023/08/30 04:52:56;;;;;;;18.17;10.93;;;14.60;99.90;;;;;;5031087;28;20368;-82
2023/08/30 04:55:24;;;;;;;16.52;11.48;;;14.60;99.90;;;;;;5010468;28;20032;-81
2023/08/30 04:57:50;;;;;;;15.02;11.55;;;14.60;99.90;;;;;;5030127;28;20194;-79
2023/08/30 05:00:17;;;;;;;16.65;11.65;;;14.60;99.90;;;;;;5031252;28;20495;-83
2023/08/30 05:02:44;;;;;;;15.60;11.13;;;14.60;99.90;;;;;;5026974;28;20044;-84
2023/08/30 05:05:10;;;;;;;16.88;12.20;;;14.60;99.90;;;;;;5029571;28;20049;-78
2023/08/30 05:07:36;;;;;;;14.93;11.55;;;14.70;99.90;;;;;;5024784;28;20040;-83
2023/08/30 05:10:02;;;;;;;15.52;11.88;;;14.60;99.90;;;;;;5009232;28;20044;-82
2023/08/30 05:12:28;;;;;;;19.30;11.75;;;14.70;99.90;;;;;;5027981;28;20072;-85
2023/08/30 05:14:54;;;;;;;15.60;11.40;;;14.70;99.90;;;;;;5009721;28;20143;-81
2023/08/30 05:17:23;;;;;;;16.20;11.48;;;14.60;99.90;;;;;;5046514;28;20490;-80
2023/08/30 05:19:48;;;;;;;16.77;12.07;;;14.60;99.90;;;;;;5027065;28;20120;-80
2023/08/30 05:22:14;;;;;;;15.50;10.85;;;14.60;99.90;;;;;;5038593;28;20049;-79
2023/08/30 05:24:40;;;;;;;16.08;12.00;;;14.60;99.90;;;;;;5042010;28;20597;-80
2023/08/30 05:27:07;;;;;;;18.48;11.48;;;14.50;99.90;;;;;;5027930;28;20157;-80
2023/08/30 05:29:32;;;;;;;15.93;11.95;;;14.50;99.90;;;;;;5029139;28;20047;-80
2023/08/30 05:31:58;;;;;;;19.00;12.05;;;14.50;99.90;;;;;;5009486;28;20052;-80
2023/08/30 05:34:25;;;;;;;15.32;10.93;;;14.50;99.90;;;;;;5031381;28;20124;-80
2023/08/30 05:36:51;;;;;;;19.98;11.38;;;14.50;99.90;;;;;;5012464;28;20052;-79
2023/08/30 05:39:17;;;;;;;15.75;10.98;;;14.50;99.90;;;;;;5030657;28;20391;-80
2023/08/30 05:41:42;;;;;;;17.40;12.32;;;14.50;99.90;;;;;;5048331;28;20053;-77
2023/08/30 05:44:09;;;;;;;15.88;11.68;;;14.50;99.90;;;;;;5011881;28;20044;-82
2023/08/30 05:46:34;;;;;;;15.98;12.07;;;14.50;99.90;;;;;;5026533;28;20045;-81
2023/08/30 05:49:02;;;;;;;17.13;12.10;;;14.50;99.90;;;;;;5031678;28;20506;-83
2023/08/30 05:51:28;;;;;;;16.25;11.32;;;14.50;99.90;;;;;;5012535;28;20082;-80
2023/08/30 05:53:54;;;;;;;18.80;12.20;;;14.50;99.90;;;;;;5030360;28;20094;-80
2023/08/30 05:56:20;;;;;;;14.45;10.40;;;14.50;99.90;;;;;;4996635;28;20144;-80
2023/08/30 05:58:47;;;;;;;16.85;11.70;;;14.50;99.90;;;;;;5049131;28;20573;-80
2023/08/30 06:01:14;;;;;;;16.45;10.80;;;14.50;99.90;;;;;;5030323;28;20044;-81
2023/08/30 06:03:40;;;;;;;15.95;11.95;;;14.50;99.90;;;;;;5029497;28;20079;-80
2023/08/30 06:06:06;;;;;;;19.30;12.35;;;14.60;99.90;;;;;;5011446;28;20052;-79
2023/08/30 06:08:32;;;;;;;17.33;11.88;;;14.60;99.90;;;;;;5048140;28;20403;-78
2023/08/30 06:10:57;;;;;;;17.63;12.77;;;14.70;99.90;;;;;;5029882;28;20041;-79
2023/08/30 06:13:23;;;;;;;18.55;12.60;;;14.80;99.90;;;;;;5029029;28;20052;-79
2023/08/30 06:15:52;;;;;;;17.48;12.75;;;14.80;99.90;;;;;;5030048;28;20037;-79
2023/08/30 06:18:19;;;;;;;20.08;13.10;;;14.90;99.90;;;;;;5030340;28;20052;-78
2023/08/30 06:20:44;;;;;;;20.50;14.50;;;15.00;99.90;;;;;;5032801;28;20052;-79
2023/08/30 06:23:13;;;;;;;20.08;13.65;;;15.10;99.90;;;;;;5035931;28;20106;-79
2023/08/30 06:25:39;;;;;;;21.63;13.85;;;15.20;99.90;;;;;;5033771;28;20040;-79
2023/08/30 06:28:05;;;;;;;22.15;14.63;;;15.30;99.90;;;;;;5004686;28;20045;-80
2023/08/30 06:30:30;;;;;;;18.65;13.65;;;15.40;99.90;;;;;;5018688;28;20052;-79
2023/08/30 06:32:57;;;;;;;21.08;13.73;;;15.50;99.90;;;;;;5052951;28;20069;-79
2023/08/30 06:35:23;;;;;;;18.05;12.25;;;15.60;99.90;;;;;;4998014;28;20048;-79
2023/08/30 06:37:50;;;;;;;19.27;13.63;;;15.70;99.90;;;;;;5054051;28;20457;-78
2023/08/30 06:40:16;;;;;;;16.77;12.23;;;15.80;99.90;;;;;;5035800;28;20102;-79
2023/08/30 06:42:43;;;;;;;14.95;10.32;;;15.80;99.90;;;;;;5020058;28;20072;-79
2023/08/30 06:45:09;;;;;;;12.95;8.90;;;15.80;99.90;;;;;;5036941;28;20041;-79
2023/08/30 06:47:35;;;;;;;12.90;8.77;;;15.80;99.90;;;;;;5032905;28;20067;-79
2023/08/30 06:50:01;;;;;;;12.02;8.32;;;15.90;99.90;;;;;;5032740;28;20044;-79
2023/08/30 06:52:27;;;;;;;11.15;7.43;;;15.90;99.90;;;;;;5033691;28;20082;-79
2023/08/30 06:54:53;;;;;;;11.15;8.10;;;16.00;99.90;;;;;;5049044;28;20608;-78
2023/08/30 06:57:19;;;;;;;9.82;7.05;;;16.00;99.90;;;;;;5020079;28;20685;-78
2023/08/30 06:59:45;;;;;;;8.50;6.60;;;16.00;99.90;;;;;;5024627;28;20139;-79
2023/08/30 07:02:11;;;;;;;9.27;6.65;;;16.00;99.90;;;;;;5037007;28;20090;-79
2023/08/30 07:04:36;;;;;;;12.50;6.90;;;16.10;99.90;;;;;;5037478;28;20487;-79
2023/08/30 07:07:02;;;;;;;9.35;6.80;;;16.10;99.90;;;;;;5053631;28;20072;-79
2023/08/30 07:09:29;;;;;;;11.98;7.47;;;16.20;99.90;;;;;;5039189;28;20641;-79
2023/08/30 07:11:58;;;;;;;10.50;7.20;;;16.20;99.90;;;;;;5036088;28;20041;-78
2023/08/30 07:14:26;;;;;;;9.95;7.32;;;16.30;99.90;;;;;;5034607;28;20055;-79
2023/08/30 07:16:51;;;;;;;11.13;7.80;;;16.30;99.90;;;;;;5022852;28;20113;-79
2023/08/30 07:19:17;;;;;;;11.40;7.32;;;16.30;99.90;;;;;;5051439;28;20055;-79
2023/08/30 07:21:43;;;;;;;10.45;6.10;;;16.30;99.90;;;;;;5033073;28;20051;-79
2023/08/30 07:24:15;;;;;;;9.57;5.93;;;16.30;99.90;;;;;;5034713;28;20484;-78
2023/08/30 07:26:40;;;;;;;9.40;5.82;;;16.30;99.90;;;;;;5042380;28;20102;-79
2023/08/30 07:29:06;;;;;;;8.18;4.80;;;16.30;99.90;;;;;;5027099;28;20076;-79
2023/08/30 07:31:32;;;;;;;6.38;4.22;;;16.30;99.80;;;;;;5041701;28;20044;-79
2023/08/30 07:33:59;;;;;;;7.32;4.32;;;16.20;99.30;;;;;;5040661;28;20040;-79
2023/08/30 07:36:26;;;;;;;6.60;3.90;;;16.20;99.00;;;;;;5044064;28;20060;-79
2023/08/30 07:38:52;;;;;;;7.53;3.75;;;16.20;98.40;;;;;;5043804;28;20135;-79
2023/08/30 07:41:17;;;;;;;5.53;3.67;;;16.10;97.90;;;;;;5042405;28;20517;-79
2023/08/30 07:43:44;;;;;;;5.45;3.33;;;16.10;97.60;;;;;;5056750;28;20337;-79
2023/08/30 07:46:10;;;;;;;7.47;4.03;;;16.20;97.50;;;;;;5008971;28;20170;-78
2023/08/30 07:48:36;;;;;;;7.75;4.55;;;16.20;97.20;;;;;;5024856;28;20127;-78
2023/08/30 07:51:02;;;;;;;8.10;4.90;;;16.10;97.00;;;;;;5041400;28;20387;-79
2023/08/30 07:53:27;;;;;;;7.53;4.60;;;16.10;96.80;;;;;;5058632;28;20056;-79
2023/08/30 07:55:53;;;;;;;8.77;5.28;;;16.10;96.90;;;;;;5039621;28;20476;-78
2023/08/30 07:58:19;;;;;;;7.05;4.47;;;16.10;97.10;;;;;;5017551;28;20080;-79
2023/08/30 08:00:45;;;;;;;8.77;4.90;;;16.10;97.10;;;;;;5040433;28;20092;-79
2023/08/30 08:03:10;;;;;;;8.02;4.72;;;16.10;96.90;;;;;;5044415;28;20056;-78
2023/08/30 08:05:37;;;;;;;10.15;5.63;;;16.30;97.10;;;;;;5038742;28;20059;-79
2023/08/30 08:08:03;;;;;;;7.88;4.95;;;16.10;97.10;;;;;;5040008;28;20060;-79
2023/08/30 08:10:36;;;;;;;10.25;5.72;;;16.00;97.20;;;;;;5026925;28;20056;-79
2023/08/30 08:13:03;;;;;;;8.82;5.72;;;16.00;97.40;;;;;;5025240;28;20048;-79
2023/08/30 08:15:30;;;;;;;8.07;5.05;;;15.90;97.60;;;;;;5024344;28;20531;-78
2023/08/30 08:17:57;;;;;;;10.10;4.95;;;15.80;97.90;;;;;;5029221;28;20044;-79
2023/08/30 08:20:23;;;;;;;7.78;4.35;;;15.80;98.20;;;;;;5044750;28;20051;-79
2023/08/30 08:22:49;;;;;;;7.07;4.00;;;15.70;98.40;;;;;;5040567;28;20040;-79
2023/08/30 08:25:15;;;;;;;7.93;2.90;;;15.60;98.70;;;;;;5042502;28;20056;-79
2023/08/30 08:27:42;;;;;;;7.60;3.50;;;15.60;98.80;;;;;;5041521;28;20055;-79
2023/08/30 08:30:09;;;;;;;5.45;2.83;;;15.50;98.80;;;;;;5044968;28;20072;-77
2023/08/30 08:32:36;;;;;;;7.07;2.85;;;15.40;98.90;;;;;;5043830;28;20131;-77
2023/08/30 08:35:02;;;;;;;3.35;1.95;;;15.40;99.00;;;;;;5042857;28;20049;-78
2023/08/30 08:37:28;;;;;;;5.43;2.20;;;15.30;99.00;;;;;;5057993;28;20083;-78
2023/08/30 08:39:54;;;;;;;5.47;2.42;;;15.20;99.10;;;;;;5042763;28;20072;-78
2023/08/30 08:42:20;;;;;;;5.55;3.95;;;15.20;99.30;;;;;;5041788;28;20261;-78
2023/08/30 08:44:58;;;;;;;5.55;3.00;;;15.10;99.50;;;;;;5040556;28;20415;-79
2023/08/30 08:47:24;;;;;;;7.53;3.10;;;15.10;99.90;;;;;;5040160;28;20049;-79
2023/08/30 08:49:51;;;;;;;8.20;3.50;;;15.10;99.90;;;;;;5042436;28;20052;-78
2023/08/30 08:52:17;;;;;;;5.63;2.92;;;15.10;99.90;;;;;;5028458;28;20080;-78
2023/08/30 08:54:44;;;;;;;5.95;2.97;;;15.10;99.90;;;;;;5026787;28;20110;-79
2023/08/30 08:57:10;;;;;;;6.97;3.30;;;15.00;99.90;;;;;;5038702;28;20071;-78
2023/08/30 08:59:36;;;;;;;7.22;3.05;;;15.00;99.90;;;;;;5040813;28;20056;-78
2023/08/30 09:02:03;;;;;;;7.07;3.20;;;15.00;99.90;;;;;;5026922;28;20045;-78
2023/08/30 09:04:32;;;;;;;7.32;3.42;;;15.00;99.90;;;;;;5044584;28;20472;-78
2023/08/30 09:07:00;;;;;;;7.00;3.28;;;15.00;99.90;;;;;;5049749;28;20103;-78
2023/08/30 09:09:26;;;;;;;6.32;2.63;;;15.00;99.90;;;;;;5045506;28;20074;-78
2023/08/30 09:11:51;;;;;;;4.47;2.60;;;14.90;99.90;;;;;;5048927;28;20102;-79
2023/08/30 09:14:18;;;;;;;7.65;2.47;;;14.90;99.90;;;;;;5042197;28;20045;-79
2023/08/30 09:17:01;;;;;;;5.95;2.60;;;14.90;99.90;;;;;;5042724;28;20059;-79
2023/08/30 09:19:28;;;;;;;7.47;2.63;;;14.90;99.90;;;;;;5049083;28;20423;-78
2023/08/30 09:21:55;;;;;;;4.40;2.38;;;14.90;99.90;;;;;;5050887;28;20045;-79
2023/08/30 09:24:21;;;;;;;5.60;2.42;;;14.90;99.90;;;;;;5025920;28;20048;-79
2023/08/30 09:26:52;;;;;;;5.47;2.75;;;14.90;99.90;;;;;;5026628;28;20407;-79
2023/08/30 09:29:20;;;;;;;6.35;3.05;;;15.00;99.90;;;;;;5044047;28;20044;-78
2023/08/30 09:31:47;;;;;;;5.00;2.70;;;15.10;99.90;;;;;;5040829;28;20066;-79
2023/08/30 09:34:12;;;;;;;6.28;3.00;;;15.10;99.90;;;;;;5045991;28;20047;-79
2023/08/30 09:36:40;;;;;;;6.45;2.92;;;15.10;99.90;;;;;;5047427;28;20040;-79
2023/08/30 09:39:14;;;;;;;6.13;3.25;;;15.10;99.90;;;;;;5046135;28;20475;-79
2023/08/30 09:41:44;;;;;;;5.15;2.88;;;15.20;99.90;;;;;;5042804;28;20044;-80
2023/08/30 09:44:14;;;;;;;5.70;2.80;;;15.30;99.90;;;;;;5043278;28;20161;-79
2023/08/30 09:46:45;;;;;;;5.93;2.58;;;15.30;99.90;;;;;;5037788;28;20048;-80
2023/08/30 09:49:12;;;;;;;6.15;2.90;;;15.30;99.90;;;;;;5039619;28;20059;-79
2023/08/30 09:51:43;;;;;;;4.85;3.17;;;15.30;99.90;;;;;;5041549;28;20047;-79
2023/08/30 09:54:17;;;;;;;5.60;3.03;;;15.40;99.90;;;;;;5058519;28;20067;-79
2023/08/30 09:56:44;;;;;;;5.82;2.95;;;15.50;99.90;;;;;;5043107;28;20333;-79
2023/08/30 09:59:11;;;;;;;4.55;2.50;;;15.50;99.90;;;;;;5023510;28;20053;-79
2023/08/30 10:01:41;;;;;;;5.35;2.88;;;15.50;99.90;;;;;;5040908;28;20076;-80
2023/08/30 10:04:10;;;;;;;3.85;2.80;;;15.60;99.90;;;;;;5042559;28;20602;-79
2023/08/30 10:06:39;;;;;;;6.05;3.10;;;15.60;99.90;;;;;;5019276;28;20062;-80
2023/08/30 10:09:07;;;;;;;5.40;2.78;;;15.70;99.90;;;;;;5033697;28;20487;-80
2023/08/30 10:11:38;;;;;;;4.35;2.60;;;15.80;99.90;;;;;;5021955;28;20041;-79
2023/08/30 10:14:05;;;;;;;3.60;2.60;;;15.80;99.90;;;;;;5002645;28;20083;-80
2023/08/30 10:16:39;;;;;;;5.38;2.95;;;15.80;99.90;;;;;;5036084;28;20052;-80
2023/08/30 10:19:10;;;;;;;5.78;3.13;;;15.90;99.90;;;;;;5037758;28;20052;-77
2023/08/30 10:22:02;;;;;;;6.90;3.20;;;15.80;99.90;;;;;;5053072;28;20045;-79
2023/08/30 10:24:29;;;;;;;5.90;3.40;;;15.80;99.90;;;;;;5036983;28;20862;-78
2023/08/30 10:26:56;;;;;;;5.75;3.03;;;15.80;99.90;;;;;;5035472;28;20052;-79
2023/08/30 10:29:29;;;;;;;5.70;2.95;;;15.70;99.90;;;;;;5036968;28;20055;-79
2023/08/30 10:31:55;;;;;;;5.45;3.55;;;15.70;99.90;;;;;;5037471;28;20095;-78
2023/08/30 10:34:21;;;;;;;5.95;3.38;;;15.80;99.90;;;;;;5036467;28;20130;-78
2023/08/30 10:36:57;;;;;;;5.13;3.10;;;15.90;99.90;;;;;;5039899;28;20044;-79
2023/08/30 10:39:37;;;;;;;4.75;2.70;;;15.90;99.90;;;;;;5033275;28;20355;-79
2023/08/30 10:42:15;;;;;;;5.07;3.03;;;16.00;99.90;;;;;;5033421;28;20048;-78
2023/08/30 10:44:51;;;;;;;4.65;3.00;;;15.90;99.90;;;;;;5039595;28;20049;-78
2023/08/30 10:47:29;;;;;;;4.00;3.05;;;15.90;99.90;;;;;;5041336;28;20039;-78
2023/08/30 10:49:59;;;;;;;5.07;3.25;;;15.90;99.90;;;;;;5035584;28;20049;-78
2023/08/30 10:52:30;;;;;;;4.47;3.15;;;15.90;99.90;;;;;;5032117;28;20048;-79
2023/08/30 10:55:16;;;;;;;4.25;2.60;;;16.00;99.90;;;;;;5036728;28;20051;-79
2023/08/30 10:57:43;;;;;;;4.28;2.80;;;16.00;99.90;;;;;;5038689;28;20087;-79
2023/08/30 11:00:18;;;;;;;3.90;2.88;;;16.10;99.90;;;;;;5026181;28;20479;-79
2023/08/30 11:02:46;;;;;;;4.43;2.70;;;16.10;99.90;;;;;;5039899;28;20058;-79
2023/08/30 11:05:12;;;;;;;5.68;2.80;;;16.20;99.90;;;;;;5035363;28;20730;-78
2023/08/30 11:07:38;;;;;;;4.90;2.88;;;16.40;99.90;;;;;;5036361;28;20048;-80
2023/08/30 11:10:08;;;;;;;4.20;2.33;;;16.60;99.90;;;;;;5016692;28;20045;-79
2023/08/30 11:12:35;;;;;;;4.75;2.30;;;16.80;99.90;;;;;;5031939;28;20048;-79
2023/08/30 11:15:02;;;;;;;4.38;2.72;;;17.00;99.90;;;;;;5033265;28;20159;-79
2023/08/30 11:17:28;;;;;;;5.35;3.92;;;17.00;99.90;;;;;;4984375;28;20044;-78
2023/08/30 11:20:04;;;;;;;7.10;3.15;;;17.00;99.90;;;;;;5030462;28;20724;-79
2023/08/30 11:22:30;;;;;;;4.07;1.73;;;17.20;99.90;;;;;;5047441;28;20045;-79
2023/08/30 11:24:56;;;;;;;5.70;2.03;;;17.10;99.90;;;;;;5021019;28;20122;-79
2023/08/30 11:27:22;;;;;;;3.53;2.28;;;17.20;99.90;;;;;;5034563;28;20056;-79
2023/08/30 11:29:47;;;;;;;2.80;1.90;;;17.10;99.90;;;;;;5034453;28;20047;-79
2023/08/30 11:32:13;;;;;;;3.92;1.90;;;17.10;99.90;;;;;;4999710;28;20507;-79
2023/08/30 11:34:39;;;;;;;3.47;1.67;;;17.10;99.90;;;;;;5035333;28;20114;-79
2023/08/30 11:37:05;;;;;;;3.83;1.90;;;17.10;99.90;;;;;;5031319;28;20431;-78
2023/08/30 11:39:31;;;;;;;2.35;1.60;;;17.10;99.90;;;;;;5033010;28;20044;-79
2023/08/30 11:41:57;;;;;;;2.30;1.40;;;17.10;99.90;;;;;;5030188;28;20106;-78
2023/08/30 11:44:29;;;;;;;2.95;1.70;;;17.10;99.90;;;;;;5016324;28;20074;-79
2023/08/30 11:46:59;;;;;;;3.65;1.70;;;17.20;99.90;;;;;;5017476;28;20057;-79
2023/08/30 11:49:25;;;;;;;3.75;1.80;;;17.20;99.90;;;;;;5035115;28;20060;-78
2023/08/30 11:51:52;;;;;;;3.15;1.60;;;17.40;99.90;;;;;;5013638;28;20483;-79
2023/08/30 11:54:20;;;;;;;2.67;1.40;;;17.40;99.90;;;;;;5037123;28;20483;-78
2023/08/30 11:56:46;;;;;;;3.08;1.55;;;17.50;99.90;;;;;;5033708;28;20496;-79
2023/08/30 11:59:20;;;;;;;2.42;1.38;;;17.60;99.90;;;;;;4999280;28;20048;-79
2023/08/30 12:01:46;;;;;;;2.13;1.17;;;17.70;99.90;;;;;;5033808;28;20055;-77
2023/08/30 12:04:13;;;;;;;1.73;1.08;;;17.80;99.90;;;;;;5013888;28;20117;-79
2023/08/30 12:06:39;;;;;;;2.42;1.13;;;17.90;99.80;;;;;;5031144;28;20087;-79
2023/08/30 12:09:09;;;;;;;3.15;1.30;;;18.00;99.50;;;;;;5018840;28;20145;-79
2023/08/30 12:11:35;;;;;;;2.60;1.33;;;18.00;99.00;;;;;;5032216;28;20045;-78
2023/08/30 12:14:05;;;;;;;1.92;1.35;;;18.10;98.70;;;;;;5030286;28;20056;-79
2023/08/30 12:16:31;;;;;;;3.40;1.20;;;18.30;98.50;;;;;;5031676;28;20048;-79
2023/08/30 12:19:08;;;;;;;2.33;1.40;;;18.70;98.10;;;;;;5032776;28;20052;-78
2023/08/30 12:21:44;;;;;;;2.83;1.60;;;18.90;97.50;;;;;;5032637;28;20633;-78
2023/08/30 12:24:10;;;;;;;3.10;1.60;;;19.10;96.60;;;;;;5031925;28;20063;-79
2023/08/30 12:26:39;;;;;;;2.88;1.60;;;19.20;96.10;;;;;;5016606;28;20052;-78
2023/08/30 12:29:06;;;;;;;2.80;1.83;;;19.10;95.70;;;;;;5029486;28;20057;-79
2023/08/30 12:31:33;;;;;;;3.30;1.90;;;19.10;95.50;;;;;;5034513;28;20048;-80
2023/08/30 12:33:58;;;;;;;4.10;2.05;;;19.10;95.30;;;;;;5039067;28;20514;-79
2023/08/30 12:36:24;;;;;;;3.15;1.60;;;19.10;95.20;;;;;;5039558;28;20041;-79
2023/08/30 12:38:50;;;;;;;5.00;1.88;;;19.10;95.00;;;;;;5038180;28;20048;-79
2023/08/30 12:41:16;;;;;;;5.00;2.00;;;19.00;94.50;;;;;;5039185;28;20103;-79